sensor_id;sensor_type;location;lat;lon;timestamp;temperature;humidity
7341;DHT22;6870;50.944;6.932;2024-02-14T00:01:08;20.20;39.10
7341;DHT22;6870;50.944;6.932;2024-02-14T00:03:37;20.00;38.70
7341;DHT22;6870;50.944;6.932;2024-02-14T00:06:07;20.40;39.20
7341;DHT22;6870;50.944;6.932;2024-02-14T00:08:35;20.20;39.20
7341;DHT22;6870;50.944;6.932;2024-02-14T00:11:04;20.20;38.80
7341;DHT22;6870;50.944;6.932;2024-02-14T00:13:33;20.50;39.80
7341;DHT22;6870;50.944;6.932;2024-02-14T00:16:02;20.30;39.20
7341;DHT22;6870;50.944;6.932;2024-02-14T00:18:30;20.20;39.20
7341;DHT22;6870;50.944;6.932;2024-02-14T00:20:58;20.00;39.00
7341;DHT22;6870;50.944;6.932;2024-02-14T00:23:28;20.40;38.40
7341;DHT22;6870;50.944;6.932;2024-02-14T00:25:56;19.90;38.60
7341;DHT22;6870;50.944;6.932;2024-02-14T00:28:24;19.90;38.10
7341;DHT22;6870;50.944;6.932;2024-02-14T00:30:53;20.30;39.60
7341;DHT22;6870;50.944;6.932;2024-02-14T00:33:21;20.10;39.70
7341;DHT22;6870;50.944;6.932;2024-02-14T00:35:50;20.10;39.40
7341;DHT22;6870;50.944;6.932;2024-02-14T00:38:18;20.10;38.90
7341;DHT22;6870;50.944;6.932;2024-02-14T00:40:47;19.90;38.80
7341;DHT22;6870;50.944;6.932;2024-02-14T00:43:16;20.30;39.40
7341;DHT22;6870;50.944;6.932;2024-02-14T00:45:44;20.00;38.80
7341;DHT22;6870;50.944;6.932;2024-02-14T00:48:12;19.90;38.30
7341;DHT22;6870;50.944;6.932;2024-02-14T00:50:40;20.50;40.10
7341;DHT22;6870;50.944;6.932;2024-02-14T00:53:08;20.20;38.90
7341;DHT22;6870;50.944;6.932;2024-02-14T00:55:36;20.20;39.90
7341;DHT22;6870;50.944;6.932;2024-02-14T00:58:06;20.00;38.80
7341;DHT22;6870;50.944;6.932;2024-02-14T01:00:34;20.20;39.70
7341;DHT22;6870;50.944;6.932;2024-02-14T01:03:02;19.80;38.70
7341;DHT22;6870;50.944;6.932;2024-02-14T01:05:31;19.70;38.80
7341;DHT22;6870;50.944;6.932;2024-02-14T01:07:59;20.00;39.10
7341;DHT22;6870;50.944;6.932;2024-02-14T01:10:27;19.70;39.00
7341;DHT22;6870;50.944;6.932;2024-02-14T01:12:55;19.80;39.00
7341;DHT22;6870;50.944;6.932;2024-02-14T01:15:25;19.90;39.70
7341;DHT22;6870;50.944;6.932;2024-02-14T01:17:53;20.10;40.10
7341;DHT22;6870;50.944;6.932;2024-02-14T01:20:21;19.90;39.60
7341;DHT22;6870;50.944;6.932;2024-02-14T01:22:49;19.70;39.50
7341;DHT22;6870;50.944;6.932;2024-02-14T01:25:17;20.00;39.80
7341;DHT22;6870;50.944;6.932;2024-02-14T01:27:45;20.10;40.00
7341;DHT22;6870;50.944;6.932;2024-02-14T01:30:15;20.20;39.70
7341;DHT22;6870;50.944;6.932;2024-02-14T01:32:44;19.90;40.20
7341;DHT22;6870;50.944;6.932;2024-02-14T01:35:13;19.90;39.90
7341;DHT22;6870;50.944;6.932;2024-02-14T01:37:41;20.00;40.10
7341;DHT22;6870;50.944;6.932;2024-02-14T01:40:12;20.00;39.50
7341;DHT22;6870;50.944;6.932;2024-02-14T01:42:40;19.70;40.10
7341;DHT22;6870;50.944;6.932;2024-02-14T01:45:09;19.70;39.60
7341;DHT22;6870;50.944;6.932;2024-02-14T01:47:37;19.80;40.90
7341;DHT22;6870;50.944;6.932;2024-02-14T01:50:10;20.00;39.90
7341;DHT22;6870;50.944;6.932;2024-02-14T01:52:39;19.80;40.40
7341;DHT22;6870;50.944;6.932;2024-02-14T01:55:08;19.90;40.70
7341;DHT22;6870;50.944;6.932;2024-02-14T01:57:38;20.00;40.30
7341;DHT22;6870;50.944;6.932;2024-02-14T02:00:07;20.20;40.80
7341;DHT22;6870;50.944;6.932;2024-02-14T02:02:35;20.30;41.00
7341;DHT22;6870;50.944;6.932;2024-02-14T02:05:05;20.10;39.90
7341;DHT22;6870;50.944;6.932;2024-02-14T02:07:34;20.10;40.10
7341;DHT22;6870;50.944;6.932;2024-02-14T02:10:06;19.90;40.00
7341;DHT22;6870;50.944;6.932;2024-02-14T02:12:35;19.80;40.00
7341;DHT22;6870;50.944;6.932;2024-02-14T02:15:06;19.80;39.70
7341;DHT22;6870;50.944;6.932;2024-02-14T02:17:37;20.10;40.50
7341;DHT22;6870;50.944;6.932;2024-02-14T02:20:07;19.80;40.40
7341;DHT22;6870;50.944;6.932;2024-02-14T02:22:37;20.10;40.80
7341;DHT22;6870;50.944;6.932;2024-02-14T02:25:07;19.90;39.90
7341;DHT22;6870;50.944;6.932;2024-02-14T02:27:35;20.30;40.80
7341;DHT22;6870;50.944;6.932;2024-02-14T02:30:05;20.20;40.70
7341;DHT22;6870;50.944;6.932;2024-02-14T02:32:35;20.20;40.90
7341;DHT22;6870;50.944;6.932;2024-02-14T02:35:03;20.20;40.90
7341;DHT22;6870;50.944;6.932;2024-02-14T02:37:33;20.00;40.50
7341;DHT22;6870;50.944;6.932;2024-02-14T02:40:01;20.10;41.10
7341;DHT22;6870;50.944;6.932;2024-02-14T02:42:31;20.00;40.70
7341;DHT22;6870;50.944;6.932;2024-02-14T02:44:59;19.80;40.50
7341;DHT22;6870;50.944;6.932;2024-02-14T02:47:28;20.00;40.70
7341;DHT22;6870;50.944;6.932;2024-02-14T02:49:57;20.00;40.70
7341;DHT22;6870;50.944;6.932;2024-02-14T02:52:28;20.10;41.30
7341;DHT22;6870;50.944;6.932;2024-02-14T02:54:57;19.90;40.50
7341;DHT22;6870;50.944;6.932;2024-02-14T02:57:27;19.80;40.60
7341;DHT22;6870;50.944;6.932;2024-02-14T02:59:56;19.70;40.50
7341;DHT22;6870;50.944;6.932;2024-02-14T03:02:24;19.90;41.00
7341;DHT22;6870;50.944;6.932;2024-02-14T03:04:53;19.90;40.50
7341;DHT22;6870;50.944;6.932;2024-02-14T03:07:21;20.20;41.40
7341;DHT22;6870;50.944;6.932;2024-02-14T03:09:50;20.00;41.20
7341;DHT22;6870;50.944;6.932;2024-02-14T03:12:18;20.20;41.40
7341;DHT22;6870;50.944;6.932;2024-02-14T03:14:47;20.00;40.70
7341;DHT22;6870;50.944;6.932;2024-02-14T03:17:17;20.10;41.30
7341;DHT22;6870;50.944;6.932;2024-02-14T03:19:45;20.20;41.30
7341;DHT22;6870;50.944;6.932;2024-02-14T03:22:15;19.90;41.00
7341;DHT22;6870;50.944;6.932;2024-02-14T03:24:45;20.30;40.80
7341;DHT22;6870;50.944;6.932;2024-02-14T03:27:13;20.20;40.70
7341;DHT22;6870;50.944;6.932;2024-02-14T03:29:44;19.90;40.90
7341;DHT22;6870;50.944;6.932;2024-02-14T03:32:14;19.90;40.60
7341;DHT22;6870;50.944;6.932;2024-02-14T03:34:43;20.00;41.20
7341;DHT22;6870;50.944;6.932;2024-02-14T03:37:11;20.20;40.70
7341;DHT22;6870;50.944;6.932;2024-02-14T03:39:39;20.00;40.60
7341;DHT22;6870;50.944;6.932;2024-02-14T03:42:08;19.80;40.00
7341;DHT22;6870;50.944;6.932;2024-02-14T03:44:36;19.80;40.70
7341;DHT22;6870;50.944;6.932;2024-02-14T03:47:05;19.90;41.20
7341;DHT22;6870;50.944;6.932;2024-02-14T03:49:33;20.10;41.30
7341;DHT22;6870;50.944;6.932;2024-02-14T03:52:03;19.80;40.60
7341;DHT22;6870;50.944;6.932;2024-02-14T03:54:36;19.70;40.90
7341;DHT22;6870;50.944;6.932;2024-02-14T03:57:05;20.00;41.30
7341;DHT22;6870;50.944;6.932;2024-02-14T03:59:37;19.90;41.20
7341;DHT22;6870;50.944;6.932;2024-02-14T04:02:06;20.20;41.00
7341;DHT22;6870;50.944;6.932;2024-02-14T04:04:36;19.90;41.20
7341;DHT22;6870;50.944;6.932;2024-02-14T04:07:07;20.00;41.20
7341;DHT22;6870;50.944;6.932;2024-02-14T04:09:36;19.90;41.20
7341;DHT22;6870;50.944;6.932;2024-02-14T04:12:04;20.10;41.50
7341;DHT22;6870;50.944;6.932;2024-02-14T04:14:33;19.80;41.10
7341;DHT22;6870;50.944;6.932;2024-02-14T04:17:03;20.10;41.30
7341;DHT22;6870;50.944;6.932;2024-02-14T04:19:32;19.80;41.10
7341;DHT22;6870;50.944;6.932;2024-02-14T04:22:00;19.70;41.20
7341;DHT22;6870;50.944;6.932;2024-02-14T04:24:29;20.20;41.70
7341;DHT22;6870;50.944;6.932;2024-02-14T04:26:57;19.70;40.90
7341;DHT22;6870;50.944;6.932;2024-02-14T04:29:25;19.80;41.10
7341;DHT22;6870;50.944;6.932;2024-02-14T04:31:55;19.70;40.80
7341;DHT22;6870;50.944;6.932;2024-02-14T04:34:23;20.10;41.20
7341;DHT22;6870;50.944;6.932;2024-02-14T04:36:51;19.80;41.10
7341;DHT22;6870;50.944;6.932;2024-02-14T04:39:19;19.80;40.70
7341;DHT22;6870;50.944;6.932;2024-02-14T04:41:49;20.00;41.20
7341;DHT22;6870;50.944;6.932;2024-02-14T04:44:27;20.10;41.40
7341;DHT22;6870;50.944;6.932;2024-02-14T04:46:56;20.00;41.20
7341;DHT22;6870;50.944;6.932;2024-02-14T04:49:25;19.90;41.10
7341;DHT22;6870;50.944;6.932;2024-02-14T04:51:55;20.00;41.40
7341;DHT22;6870;50.944;6.932;2024-02-14T04:54:23;19.80;41.00
7341;DHT22;6870;50.944;6.932;2024-02-14T04:56:53;19.80;41.10
7341;DHT22;6870;50.944;6.932;2024-02-14T04:59:26;19.80;41.40
7341;DHT22;6870;50.944;6.932;2024-02-14T05:01:54;19.90;41.30
7341;DHT22;6870;50.944;6.932;2024-02-14T05:04:23;20.20;41.90
7341;DHT22;6870;50.944;6.932;2024-02-14T05:06:51;20.10;41.50
7341;DHT22;6870;50.944;6.932;2024-02-14T05:09:25;20.10;41.50
7341;DHT22;6870;50.944;6.932;2024-02-14T05:11:54;20.10;41.30
7341;DHT22;6870;50.944;6.932;2024-02-14T05:14:22;19.70;41.00
7341;DHT22;6870;50.944;6.932;2024-02-14T05:16:50;20.00;42.00
7341;DHT22;6870;50.944;6.932;2024-02-14T05:19:19;19.90;42.00
7341;DHT22;6870;50.944;6.932;2024-02-14T05:21:49;20.10;41.70
7341;DHT22;6870;50.944;6.932;2024-02-14T05:24:17;20.20;42.30
7341;DHT22;6870;50.944;6.932;2024-02-14T05:26:46;20.10;40.10
7341;DHT22;6870;50.944;6.932;2024-02-14T05:29:15;19.80;39.40
7341;DHT22;6870;50.944;6.932;2024-02-14T05:31:46;19.80;39.00
7341;DHT22;6870;50.944;6.932;2024-02-14T05:34:15;19.70;39.00
7341;DHT22;6870;50.944;6.932;2024-02-14T05:36:44;19.70;38.10
7341;DHT22;6870;50.944;6.932;2024-02-14T05:39:13;19.60;39.30
7341;DHT22;6870;50.944;6.932;2024-02-14T05:41:42;19.80;40.20
7341;DHT22;6870;50.944;6.932;2024-02-14T05:44:10;20.00;40.70
7341;DHT22;6870;50.944;6.932;2024-02-14T05:46:40;20.20;40.80
7341;DHT22;6870;50.944;6.932;2024-02-14T05:49:08;19.90;39.90
7341;DHT22;6870;50.944;6.932;2024-02-14T05:51:43;20.10;40.60
7341;DHT22;6870;50.944;6.932;2024-02-14T05:54:18;20.10;40.30
7341;DHT22;6870;50.944;6.932;2024-02-14T05:56:47;19.80;39.50
7341;DHT22;6870;50.944;6.932;2024-02-14T05:59:15;20.00;40.50
7341;DHT22;6870;50.944;6.932;2024-02-14T06:01:45;19.80;40.00
7341;DHT22;6870;50.944;6.932;2024-02-14T06:04:13;20.20;40.40
7341;DHT22;6870;50.944;6.932;2024-02-14T06:06:41;20.00;40.20
7341;DHT22;6870;50.944;6.932;2024-02-14T06:09:09;20.00;40.20
7341;DHT22;6870;50.944;6.932;2024-02-14T06:11:38;20.10;39.70
7341;DHT22;6870;50.944;6.932;2024-02-14T06:14:06;20.10;39.20
7341;DHT22;6870;50.944;6.932;2024-02-14T06:16:35;19.90;39.80
7341;DHT22;6870;50.944;6.932;2024-02-14T06:19:04;20.00;39.80
7341;DHT22;6870;50.944;6.932;2024-02-14T06:21:33;20.00;39.80
7341;DHT22;6870;50.944;6.932;2024-02-14T06:24:01;20.10;39.60
7341;DHT22;6870;50.944;6.932;2024-02-14T06:26:30;20.00;38.70
7341;DHT22;6870;50.944;6.932;2024-02-14T06:28:59;20.00;39.60
7341;DHT22;6870;50.944;6.932;2024-02-14T06:31:31;20.20;39.00
7341;DHT22;6870;50.944;6.932;2024-02-14T06:33:59;20.20;39.50
7341;DHT22;6870;50.944;6.932;2024-02-14T06:36:29;20.20;39.30
7341;DHT22;6870;50.944;6.932;2024-02-14T06:38:57;20.00;38.30
7341;DHT22;6870;50.944;6.932;2024-02-14T06:41:25;20.10;39.00
7341;DHT22;6870;50.944;6.932;2024-02-14T06:43:53;20.30;39.20
7341;DHT22;6870;50.944;6.932;2024-02-14T06:46:21;19.90;38.70
7341;DHT22;6870;50.944;6.932;2024-02-14T06:48:49;20.00;38.70
7341;DHT22;6870;50.944;6.932;2024-02-14T06:51:18;20.20;38.70
7341;DHT22;6870;50.944;6.932;2024-02-14T06:53:49;20.30;39.00
7341;DHT22;6870;50.944;6.932;2024-02-14T06:56:17;20.00;38.60
7341;DHT22;6870;50.944;6.932;2024-02-14T06:58:46;20.20;38.70
7341;DHT22;6870;50.944;6.932;2024-02-14T07:01:19;20.10;37.80
7341;DHT22;6870;50.944;6.932;2024-02-14T07:03:48;19.60;38.30
7341;DHT22;6870;50.944;6.932;2024-02-14T07:06:17;20.10;38.70
7341;DHT22;6870;50.944;6.932;2024-02-14T07:08:45;20.00;38.10
7341;DHT22;6870;50.944;6.932;2024-02-14T07:11:16;20.10;38.60
7341;DHT22;6870;50.944;6.932;2024-02-14T07:13:44;20.20;38.60
7341;DHT22;6870;50.944;6.932;2024-02-14T07:16:12;20.10;38.10
7341;DHT22;6870;50.944;6.932;2024-02-14T07:18:40;19.90;38.40
7341;DHT22;6870;50.944;6.932;2024-02-14T07:21:09;19.80;38.00
7341;DHT22;6870;50.944;6.932;2024-02-14T07:23:37;19.90;38.30
7341;DHT22;6870;50.944;6.932;2024-02-14T07:26:07;20.30;38.30
7341;DHT22;6870;50.944;6.932;2024-02-14T07:28:35;19.80;37.70
7341;DHT22;6870;50.944;6.932;2024-02-14T07:31:03;20.10;37.90
7341;DHT22;6870;50.944;6.932;2024-02-14T07:33:31;20.30;38.30
7341;DHT22;6870;50.944;6.932;2024-02-14T07:36:00;19.90;37.50
7341;DHT22;6870;50.944;6.932;2024-02-14T07:38:28;20.40;38.20
7341;DHT22;6870;50.944;6.932;2024-02-14T07:40:56;20.20;38.50
7341;DHT22;6870;50.944;6.932;2024-02-14T07:43:25;20.10;38.10
7341;DHT22;6870;50.944;6.932;2024-02-14T07:45:53;20.00;37.80
7341;DHT22;6870;50.944;6.932;2024-02-14T07:48:21;20.10;37.60
7341;DHT22;6870;50.944;6.932;2024-02-14T07:50:50;19.90;37.50
7341;DHT22;6870;50.944;6.932;2024-02-14T07:53:18;20.20;38.80
7341;DHT22;6870;50.944;6.932;2024-02-14T07:55:46;20.10;37.80
7341;DHT22;6870;50.944;6.932;2024-02-14T07:58:16;20.20;37.20
7341;DHT22;6870;50.944;6.932;2024-02-14T08:00:45;19.80;37.70
7341;DHT22;6870;50.944;6.932;2024-02-14T10:50:41;21.20;30.10
7341;DHT22;6870;50.944;6.932;2024-02-14T10:53:13;20.90;29.30
7341;DHT22;6870;50.944;6.932;2024-02-14T10:55:46;20.90;29.70
7341;DHT22;6870;50.944;6.932;2024-02-14T10:58:16;20.70;29.70
7341;DHT22;6870;50.944;6.932;2024-02-14T11:00:45;20.70;29.40
7341;DHT22;6870;50.944;6.932;2024-02-14T11:03:14;20.90;29.50
7341;DHT22;6870;50.944;6.932;2024-02-14T11:05:45;20.70;29.30
7341;DHT22;6870;50.944;6.932;2024-02-14T11:08:14;20.80;29.20
7341;DHT22;6870;50.944;6.932;2024-02-14T11:10:42;20.80;28.90
7341;DHT22;6870;50.944;6.932;2024-02-14T11:13:12;20.80;28.70
7341;DHT22;6870;50.944;6.932;2024-02-14T11:15:44;20.70;28.70
7341;DHT22;6870;50.944;6.932;2024-02-14T11:18:13;20.90;29.40
7341;DHT22;6870;50.944;6.932;2024-02-14T11:20:41;20.70;28.80
7341;DHT22;6870;50.944;6.932;2024-02-14T11:23:21;21.00;29.50
7341;DHT22;6870;50.944;6.932;2024-02-14T11:25:50;20.70;29.30
7341;DHT22;6870;50.944;6.932;2024-02-14T11:28:19;20.70;29.40
7341;DHT22;6870;50.944;6.932;2024-02-14T11:30:47;21.10;29.60
7341;DHT22;6870;50.944;6.932;2024-02-14T11:33:17;21.30;29.50
7341;DHT22;6870;50.944;6.932;2024-02-14T11:35:47;21.30;29.30
7341;DHT22;6870;50.944;6.932;2024-02-14T11:38:21;21.10;29.30
7341;DHT22;6870;50.944;6.932;2024-02-14T11:40:50;21.10;28.90
7341;DHT22;6870;50.944;6.932;2024-02-14T11:43:21;21.30;29.30
7341;DHT22;6870;50.944;6.932;2024-02-14T11:45:50;21.40;28.90
7341;DHT22;6870;50.944;6.932;2024-02-14T11:48:19;21.30;28.50
7341;DHT22;6870;50.944;6.932;2024-02-14T11:50:48;21.50;29.00
7341;DHT22;6870;50.944;6.932;2024-02-14T11:53:18;21.30;28.70
7341;DHT22;6870;50.944;6.932;2024-02-14T11:55:47;21.20;28.00
7341;DHT22;6870;50.944;6.932;2024-02-14T11:58:17;21.50;28.20
7341;DHT22;6870;50.944;6.932;2024-02-14T12:00:46;21.50;28.10
7341;DHT22;6870;50.944;6.932;2024-02-14T12:03:17;21.50;28.40
7341;DHT22;6870;50.944;6.932;2024-02-14T12:05:47;21.50;27.80
7341;DHT22;6870;50.944;6.932;2024-02-14T12:08:17;21.70;27.80
7341;DHT22;6870;50.944;6.932;2024-02-14T12:10:47;21.50;27.60
7341;DHT22;6870;50.944;6.932;2024-02-14T12:13:19;21.60;28.30
7341;DHT22;6870;50.944;6.932;2024-02-14T12:15:49;21.60;28.70
7341;DHT22;6870;50.944;6.932;2024-02-14T12:18:20;21.70;27.70
7341;DHT22;6870;50.944;6.932;2024-02-14T12:20:49;21.50;27.90
7341;DHT22;6870;50.944;6.932;2024-02-14T12:23:22;21.60;27.80
7341;DHT22;6870;50.944;6.932;2024-02-14T12:25:54;21.50;27.30
7341;DHT22;6870;50.944;6.932;2024-02-14T12:28:29;21.60;27.30
7341;DHT22;6870;50.944;6.932;2024-02-14T12:30:58;21.60;27.40
7341;DHT22;6870;50.944;6.932;2024-02-14T12:33:27;21.70;27.40
7341;DHT22;6870;50.944;6.932;2024-02-14T12:35:57;21.60;27.40
7341;DHT22;6870;50.944;6.932;2024-02-14T12:38:26;21.60;27.70
7341;DHT22;6870;50.944;6.932;2024-02-14T12:40:55;22.00;27.80
7341;DHT22;6870;50.944;6.932;2024-02-14T12:43:24;21.50;27.30
7341;DHT22;6870;50.944;6.932;2024-02-14T12:45:52;21.40;27.70
7341;DHT22;6870;50.944;6.932;2024-02-14T12:48:23;21.70;27.50
7341;DHT22;6870;50.944;6.932;2024-02-14T12:50:53;21.50;27.60
7341;DHT22;6870;50.944;6.932;2024-02-14T12:53:23;21.40;27.10
7341;DHT22;6870;50.944;6.932;2024-02-14T12:55:51;21.40;27.50
7341;DHT22;6870;50.944;6.932;2024-02-14T12:58:21;21.60;27.60
7341;DHT22;6870;50.944;6.932;2024-02-14T13:00:49;21.60;27.50
7341;DHT22;6870;50.944;6.932;2024-02-14T13:03:18;21.70;27.40
7341;DHT22;6870;50.944;6.932;2024-02-14T13:05:46;21.60;27.20
7341;DHT22;6870;50.944;6.932;2024-02-14T13:08:14;21.60;27.30
7341;DHT22;6870;50.944;6.932;2024-02-14T13:10:43;21.60;27.20
7341;DHT22;6870;50.944;6.932;2024-02-14T13:13:12;21.50;27.00
7341;DHT22;6870;50.944;6.932;2024-02-14T13:15:42;21.80;27.30
7341;DHT22;6870;50.944;6.932;2024-02-14T13:18:11;21.60;27.20
7341;DHT22;6870;50.944;6.932;2024-02-14T13:20:40;21.60;27.10
7341;DHT22;6870;50.944;6.932;2024-02-14T13:23:09;21.50;27.20
7341;DHT22;6870;50.944;6.932;2024-02-14T13:25:38;21.60;27.70
7341;DHT22;6870;50.944;6.932;2024-02-14T13:28:06;21.50;27.30
7341;DHT22;6870;50.944;6.932;2024-02-14T13:30:34;21.40;27.70
7341;DHT22;6870;50.944;6.932;2024-02-14T13:33:06;21.30;27.60
7341;DHT22;6870;50.944;6.932;2024-02-14T13:35:36;21.90;28.00
7341;DHT22;6870;50.944;6.932;2024-02-14T13:38:06;21.60;27.70
7341;DHT22;6870;50.944;6.932;2024-02-14T13:40:36;21.80;28.40
7341;DHT22;6870;50.944;6.932;2024-02-14T13:43:04;21.80;27.90
7341;DHT22;6870;50.944;6.932;2024-02-14T13:45:41;21.50;27.90
7341;DHT22;6870;50.944;6.932;2024-02-14T13:48:14;21.50;27.90
7341;DHT22;6870;50.944;6.932;2024-02-14T13:50:42;21.40;28.00
7341;DHT22;6870;50.944;6.932;2024-02-14T13:53:11;21.60;28.10
7341;DHT22;6870;50.944;6.932;2024-02-14T13:55:39;21.60;28.30
7341;DHT22;6870;50.944;6.932;2024-02-14T13:58:08;21.90;28.80
7341;DHT22;6870;50.944;6.932;2024-02-14T14:00:43;21.70;28.40
7341;DHT22;6870;50.944;6.932;2024-02-14T14:03:11;21.60;28.40
7341;DHT22;6870;50.944;6.932;2024-02-14T14:05:41;21.50;28.60
7341;DHT22;6870;50.944;6.932;2024-02-14T14:08:10;21.60;28.80
7341;DHT22;6870;50.944;6.932;2024-02-14T14:10:38;21.50;28.50
7341;DHT22;6870;50.944;6.932;2024-02-14T14:13:07;21.50;28.80
7341;DHT22;6870;50.944;6.932;2024-02-14T14:15:35;21.60;28.90
7341;DHT22;6870;50.944;6.932;2024-02-14T14:18:03;21.70;28.60
7341;DHT22;6870;50.944;6.932;2024-02-14T14:20:31;21.60;28.60
7341;DHT22;6870;50.944;6.932;2024-02-14T14:23:01;21.90;29.40
7341;DHT22;6870;50.944;6.932;2024-02-14T14:25:30;21.60;28.90
7341;DHT22;6870;50.944;6.932;2024-02-14T14:27:58;21.70;29.30
7341;DHT22;6870;50.944;6.932;2024-02-14T14:30:26;21.60;28.80
7341;DHT22;6870;50.944;6.932;2024-02-14T14:32:55;21.50;28.90
7341;DHT22;6870;50.944;6.932;2024-02-14T14:35:23;21.70;29.10
7341;DHT22;6870;50.944;6.932;2024-02-14T14:37:51;21.70;29.40
7341;DHT22;6870;50.944;6.932;2024-02-14T14:40:22;21.60;29.60
7341;DHT22;6870;50.944;6.932;2024-02-14T14:42:51;21.70;29.40
7341;DHT22;6870;50.944;6.932;2024-02-14T14:45:19;21.30;29.20
7341;DHT22;6870;50.944;6.932;2024-02-14T14:47:47;22.00;30.00
7341;DHT22;6870;50.944;6.932;2024-02-14T14:50:16;21.80;29.70
7341;DHT22;6870;50.944;6.932;2024-02-14T14:52:44;21.50;29.60
7341;DHT22;6870;50.944;6.932;2024-02-14T14:55:13;21.70;29.80
7341;DHT22;6870;50.944;6.932;2024-02-14T14:57:42;21.60;30.00
7341;DHT22;6870;50.944;6.932;2024-02-14T15:00:11;21.50;30.20
7341;DHT22;6870;50.944;6.932;2024-02-14T15:02:41;21.60;30.10
7341;DHT22;6870;50.944;6.932;2024-02-14T15:05:10;21.60;30.10
7341;DHT22;6870;50.944;6.932;2024-02-14T15:07:39;21.70;30.50
7341;DHT22;6870;50.944;6.932;2024-02-14T15:10:08;21.50;30.10
7341;DHT22;6870;50.944;6.932;2024-02-14T15:12:41;21.50;30.40
7341;DHT22;6870;50.944;6.932;2024-02-14T15:15:10;21.70;30.90
7341;DHT22;6870;50.944;6.932;2024-02-14T15:17:41;21.50;30.40
7341;DHT22;6870;50.944;6.932;2024-02-14T15:20:10;21.90;30.80
7341;DHT22;6870;50.944;6.932;2024-02-14T15:22:39;21.60;31.00
7341;DHT22;6870;50.944;6.932;2024-02-14T15:25:07;21.70;30.80
7341;DHT22;6870;50.944;6.932;2024-02-14T15:27:35;21.50;31.00
7341;DHT22;6870;50.944;6.932;2024-02-14T15:30:09;21.40;31.00
7341;DHT22;6870;50.944;6.932;2024-02-14T15:33:04;21.70;30.90
7341;DHT22;6870;50.944;6.932;2024-02-14T15:35:51;21.60;31.00
7341;DHT22;6870;50.944;6.932;2024-02-14T15:38:21;21.20;31.10
7341;DHT22;6870;50.944;6.932;2024-02-14T15:40:51;21.50;31.30
7341;DHT22;6870;50.944;6.932;2024-02-14T15:43:24;21.40;31.30
7341;DHT22;6870;50.944;6.932;2024-02-14T15:45:53;21.30;31.10
7341;DHT22;6870;50.944;6.932;2024-02-14T15:48:22;21.20;31.20
7341;DHT22;6870;50.944;6.932;2024-02-14T15:50:51;21.00;31.00
7341;DHT22;6870;50.944;6.932;2024-02-14T15:53:19;21.10;31.10
7341;DHT22;6870;50.944;6.932;2024-02-14T15:55:47;21.20;31.50
7341;DHT22;6870;50.944;6.932;2024-02-14T15:58:17;21.20;31.40
7341;DHT22;6870;50.944;6.932;2024-02-14T16:00:45;21.40;31.80
7341;DHT22;6870;50.944;6.932;2024-02-14T16:03:15;21.20;31.60
7341;DHT22;6870;50.944;6.932;2024-02-14T16:05:43;20.90;31.30
7341;DHT22;6870;50.944;6.932;2024-02-14T16:08:15;21.00;31.40
7341;DHT22;6870;50.944;6.932;2024-02-14T16:10:43;21.10;31.70
7341;DHT22;6870;50.944;6.932;2024-02-14T16:13:12;21.30;32.00
7341;DHT22;6870;50.944;6.932;2024-02-14T16:15:40;21.30;32.30
7341;DHT22;6870;50.944;6.932;2024-02-14T16:18:09;20.80;32.00
7341;DHT22;6870;50.944;6.932;2024-02-14T16:20:38;21.00;32.10
7341;DHT22;6870;50.944;6.932;2024-02-14T16:23:06;21.40;32.40
7341;DHT22;6870;50.944;6.932;2024-02-14T16:25:34;21.40;32.50
7341;DHT22;6870;50.944;6.932;2024-02-14T16:28:05;21.30;32.30
7341;DHT22;6870;50.944;6.932;2024-02-14T16:30:33;21.30;32.50
7341;DHT22;6870;50.944;6.932;2024-02-14T16:33:01;21.30;32.30
7341;DHT22;6870;50.944;6.932;2024-02-14T16:35:30;21.30;32.30
7341;DHT22;6870;50.944;6.932;2024-02-14T16:37:59;21.30;33.30
7341;DHT22;6870;50.944;6.932;2024-02-14T16:40:27;21.40;32.70
7341;DHT22;6870;50.944;6.932;2024-02-14T16:42:58;21.40;32.80
7341;DHT22;6870;50.944;6.932;2024-02-14T16:45:26;21.40;32.70
7341;DHT22;6870;50.944;6.932;2024-02-14T16:47:54;21.40;32.70
7341;DHT22;6870;50.944;6.932;2024-02-14T16:50:22;21.50;32.80
7341;DHT22;6870;50.944;6.932;2024-02-14T16:52:51;21.50;32.70
7341;DHT22;6870;50.944;6.932;2024-02-14T16:55:21;21.40;32.70
7341;DHT22;6870;50.944;6.932;2024-02-14T16:57:52;21.50;32.70
7341;DHT22;6870;50.944;6.932;2024-02-14T17:00:28;20.90;32.10
7341;DHT22;6870;50.944;6.932;2024-02-14T17:02:57;21.10;33.10
7341;DHT22;6870;50.944;6.932;2024-02-14T17:05:37;21.20;32.50
7341;DHT22;6870;50.944;6.932;2024-02-14T17:08:07;21.50;33.20
7341;DHT22;6870;50.944;6.932;2024-02-14T17:10:36;21.50;33.30
7341;DHT22;6870;50.944;6.932;2024-02-14T17:13:05;21.40;33.20
7341;DHT22;6870;50.944;6.932;2024-02-14T17:15:33;21.30;33.20
7341;DHT22;6870;50.944;6.932;2024-02-14T17:18:02;21.20;33.10
7341;DHT22;6870;50.944;6.932;2024-02-14T17:20:31;21.50;33.30
7341;DHT22;6870;50.944;6.932;2024-02-14T17:23:00;21.50;33.60
7341;DHT22;6870;50.944;6.932;2024-02-14T17:25:28;21.20;33.10
7341;DHT22;6870;50.944;6.932;2024-02-14T17:27:57;21.50;33.50
7341;DHT22;6870;50.944;6.932;2024-02-14T17:30:25;21.50;33.30
7341;DHT22;6870;50.944;6.932;2024-02-14T17:32:54;21.20;33.70
7341;DHT22;6870;50.944;6.932;2024-02-14T17:35:25;21.30;33.20
7341;DHT22;6870;50.944;6.932;2024-02-14T17:37:53;21.50;34.10
7341;DHT22;6870;50.944;6.932;2024-02-14T17:40:21;21.30;33.20
7341;DHT22;6870;50.944;6.932;2024-02-14T17:42:49;21.40;33.60
7341;DHT22;6870;50.944;6.932;2024-02-14T17:45:18;21.50;33.30
7341;DHT22;6870;50.944;6.932;2024-02-14T17:47:46;21.60;33.70
7341;DHT22;6870;50.944;6.932;2024-02-14T17:50:15;21.50;33.30
7341;DHT22;6870;50.944;6.932;2024-02-14T17:52:44;21.80;34.70
7341;DHT22;6870;50.944;6.932;2024-02-14T17:55:12;21.50;33.50
7341;DHT22;6870;50.944;6.932;2024-02-14T17:57:41;21.40;33.60
7341;DHT22;6870;50.944;6.932;2024-02-14T18:00:10;21.60;34.10
7341;DHT22;6870;50.944;6.932;2024-02-14T18:02:41;21.50;34.60
7341;DHT22;6870;50.944;6.932;2024-02-14T18:05:10;21.60;33.80
7341;DHT22;6870;50.944;6.932;2024-02-14T18:07:38;21.50;33.80
7341;DHT22;6870;50.944;6.932;2024-02-14T18:10:06;21.30;33.90
7341;DHT22;6870;50.944;6.932;2024-02-14T18:12:35;21.60;33.40
7341;DHT22;6870;50.944;6.932;2024-02-14T18:15:04;21.70;34.70
7341;DHT22;6870;50.944;6.932;2024-02-14T18:17:34;21.40;34.30
7341;DHT22;6870;50.944;6.932;2024-02-14T18:20:06;21.60;34.40
7341;DHT22;6870;50.944;6.932;2024-02-14T18:22:35;21.40;33.90
7341;DHT22;6870;50.944;6.932;2024-02-14T18:25:03;21.60;33.40
7341;DHT22;6870;50.944;6.932;2024-02-14T18:27:32;21.40;33.60
7341;DHT22;6870;50.944;6.932;2024-02-14T18:30:00;21.70;33.70
7341;DHT22;6870;50.944;6.932;2024-02-14T18:32:29;21.30;33.10
7341;DHT22;6870;50.944;6.932;2024-02-14T18:34:58;21.60;33.40
7341;DHT22;6870;50.944;6.932;2024-02-14T18:37:28;21.60;33.40
7341;DHT22;6870;50.944;6.932;2024-02-14T18:39:56;21.60;33.40
7341;DHT22;6870;50.944;6.932;2024-02-14T18:42:25;21.60;33.30
7341;DHT22;6870;50.944;6.932;2024-02-14T18:44:53;21.60;33.40
7341;DHT22;6870;50.944;6.932;2024-02-14T18:47:21;21.50;33.20
7341;DHT22;6870;50.944;6.932;2024-02-14T18:49:50;21.60;33.30
7341;DHT22;6870;50.944;6.932;2024-02-14T18:52:18;21.50;33.30
7341;DHT22;6870;50.944;6.932;2024-02-14T18:54:47;21.30;33.00
7341;DHT22;6870;50.944;6.932;2024-02-14T18:57:15;21.50;33.30
7341;DHT22;6870;50.944;6.932;2024-02-14T18:59:43;21.30;33.00
7341;DHT22;6870;50.944;6.932;2024-02-14T19:02:11;21.50;33.20